Terminal Aerodrome Forecast
Issued by NWS Boston, MA

Home | Current Version | Previous Version | Text Only | Print | Product List | Glossary On
Versions: 1 2 3 4 5 6 7 8 9 10 11 12 13 14 15 16 17 18 19 20 21 22 23 24 25
000
FTUS41 KBOX 261727
TAFBOS
TAF
KBOS 261727Z 2618/2724 12012KT P6SM SCT250
     FM262200 13008KT P6SM BKN060
     FM270900 17006KT P6SM BKN110
     FM271300 18006KT P6SM SCT100
     FM271800 15010G18KT P6SM SCT080
     FM272100 19010G22KT P6SM SCT250=

USA.gov is the U.S. government's official web portal to all federal, state and local government web resources and services.